createdAt,value
2023-03-02T00:02:46.060Z,26.1
2023-03-02T00:07:47.971Z,26.1
2023-03-02T00:12:49.686Z,26.1
2023-03-02T00:17:51.543Z,26.1
2023-03-02T00:22:53.505Z,26.1
2023-03-02T00:27:55.175Z,26.1
2023-03-02T00:32:56.805Z,26.1
2023-03-02T00:37:58.702Z,26.1
2023-03-02T00:43:00.597Z,26.2
2023-03-02T00:48:02.222Z,26.2
2023-03-02T00:53:04.104Z,26.2
2023-03-02T00:58:05.788Z,26.2
2023-03-02T01:03:07.456Z,26.2
2023-03-02T01:08:09.138Z,26.2
2023-03-02T01:13:11.079Z,26.2
2023-03-02T01:18:13.176Z,26.2
2023-03-02T01:23:15.086Z,26.2
2023-03-02T01:28:17.006Z,26.2
2023-03-02T01:33:18.666Z,26.2
2023-03-02T01:38:20.323Z,26.2
2023-03-02T01:43:22.216Z,26.3
2023-03-02T01:48:23.872Z,26.3
2023-03-02T01:53:25.750Z,26.3
2023-03-02T01:58:27.429Z,26.3
2023-03-02T02:03:29.342Z,26.3
2023-03-02T02:08:31.261Z,26.3
2023-03-02T02:13:33.176Z,26.3
2023-03-02T02:18:34.834Z,26.3
2023-03-02T02:23:36.454Z,26.4
2023-03-02T02:28:38.134Z,26.4
2023-03-02T02:33:39.811Z,26.4
2023-03-02T02:38:41.447Z,26.4
2023-03-02T02:43:43.379Z,26.4
2023-03-02T02:48:45.036Z,26.4
2023-03-02T02:53:46.942Z,26.4
2023-03-02T02:58:48.606Z,26.4
2023-03-02T03:03:50.275Z,26.4
2023-03-02T03:08:51.941Z,26.4
2023-03-02T03:13:53.647Z,26.4
2023-03-02T03:18:55.513Z,26.4
2023-03-02T03:23:57.160Z,26.4
2023-03-02T03:28:59.111Z,26.4
2023-03-02T03:34:00.992Z,26.4
2023-03-02T03:39:02.632Z,26.4
2023-03-02T03:44:04.296Z,26.4
2023-03-02T03:49:05.946Z,26.4
2023-03-02T03:54:07.821Z,26.4
2023-03-02T03:59:09.711Z,26.4
2023-03-02T04:04:11.371Z,26.4
2023-03-02T04:09:13.016Z,26.4
2023-03-02T04:14:14.937Z,26.5
2023-03-02T04:19:16.604Z,26.4
2023-03-02T04:24:18.493Z,26.5
2023-03-02T04:29:20.200Z,26.5
2023-03-02T04:34:21.864Z,26.5
2023-03-02T04:39:23.569Z,26.5
2023-03-02T04:44:25.492Z,26.5
2023-03-02T04:49:27.143Z,26.5
2023-03-02T04:54:28.806Z,26.5
2023-03-02T04:59:30.738Z,26.5
2023-03-02T05:04:32.435Z,26.5
2023-03-02T05:09:34.132Z,26.5
2023-03-02T05:14:35.826Z,26.5
2023-03-02T05:19:37.442Z,26.5
2023-03-02T05:24:39.087Z,26.5
2023-03-02T05:29:41.082Z,26.5
2023-03-02T05:34:42.697Z,26.5
2023-03-02T05:39:44.332Z,26.5
2023-03-02T05:44:46.005Z,26.5
2023-03-02T05:49:47.608Z,26.5
2023-03-02T05:54:49.241Z,26.5
2023-03-02T05:59:51.147Z,26.5
2023-03-02T06:04:52.793Z,26.5
2023-03-02T06:09:54.430Z,26.5
2023-03-02T06:14:56.131Z,26.5
2023-03-02T06:19:57.775Z,26.5
2023-03-02T06:24:59.416Z,26.5
2023-03-02T06:30:01.103Z,26.5
2023-03-02T06:35:02.815Z,26.5
2023-03-02T06:40:04.450Z,26.6
2023-03-02T06:45:06.210Z,26.5
2023-03-02T06:50:07.870Z,26.5
2023-03-02T06:55:09.706Z,26.6
2023-03-02T07:00:11.481Z,26.5
2023-03-02T07:05:13.082Z,25.8
2023-03-02T07:10:14.729Z,25.5
2023-03-02T07:15:16.381Z,25.5
2023-03-02T07:20:17.998Z,25.5
2023-03-02T07:25:19.605Z,25.5
2023-03-02T07:30:21.506Z,25.5
2023-03-02T07:35:23.176Z,25.5
2023-03-02T07:40:24.879Z,25.5
2023-03-02T07:45:26.543Z,25.5
2023-03-02T07:50:28.138Z,25.5
2023-03-02T07:55:29.811Z,25.5
2023-03-02T08:00:31.474Z,25.5
2023-03-02T08:05:33.291Z,25.5
2023-03-02T08:10:35.138Z,25.5
2023-03-02T08:15:36.815Z,25.5
2023-03-02T08:20:38.454Z,25.5
2023-03-02T08:25:40.316Z,25.5
2023-03-02T08:30:41.971Z,25
2023-03-02T08:35:43.819Z,24.8
2023-03-02T08:40:45.438Z,24.8
2023-03-02T08:45:47.087Z,24.8
2023-03-02T08:50:48.662Z,24.8
2023-03-02T08:55:50.255Z,24.8
2023-03-02T09:00:51.921Z,24.8
2023-03-02T09:05:53.524Z,24.8
2023-03-02T09:10:55.093Z,24.7
2023-03-02T09:15:56.750Z,24.7
2023-03-02T09:20:58.322Z,24.7
2023-03-02T09:25:59.909Z,24.7
2023-03-02T09:31:01.764Z,24.7
2023-03-02T09:36:03.357Z,24.7
2023-03-02T09:41:05.164Z,24.7
2023-03-02T09:46:06.809Z,24.8
2023-03-02T09:51:08.460Z,24.8
2023-03-02T09:56:10.072Z,24.8
2023-03-02T10:01:11.785Z,24.8
2023-03-02T10:06:13.411Z,24.8
2023-03-02T10:11:14.999Z,24.7
2023-03-02T10:16:16.884Z,24.7
2023-03-02T10:21:18.556Z,24.7
2023-03-02T10:26:20.116Z,24.7
2023-03-02T10:31:22.039Z,24.7
2023-03-02T10:36:23.667Z,24.7
2023-03-02T10:41:25.997Z,24.7
2023-03-02T10:46:27.650Z,24.7
2023-03-02T10:51:29.228Z,24.7
2023-03-02T10:56:31.035Z,24.7
2023-03-02T11:01:32.823Z,24.7
2023-03-02T11:06:34.743Z,24.7
2023-03-02T11:11:37.416Z,24.7
2023-03-02T11:16:39.321Z,24.8
2023-03-02T11:21:41.257Z,24.8
2023-03-02T11:26:42.842Z,24.8
2023-03-02T11:31:44.447Z,24.8
2023-03-02T11:36:46.118Z,24.8
2023-03-02T11:41:47.736Z,24.8
2023-03-02T11:46:50.467Z,24.8
2023-03-02T11:51:58.004Z,24.8
2023-03-02T11:57:00.883Z,24.8
2023-03-02T12:02:02.675Z,24.8
2023-03-02T12:07:05.199Z,24.8
2023-03-02T12:12:09.638Z,24.8
2023-03-02T12:17:11.660Z,24.8
2023-03-02T12:22:13.284Z,24.8
2023-03-02T12:27:15.124Z,24.9
2023-03-02T12:32:17.347Z,24.9
2023-03-02T12:37:18.935Z,24.9
2023-03-02T12:42:20.955Z,24.9
2023-03-02T12:47:23.498Z,24.9
2023-03-02T12:52:26.355Z,24.9
2023-03-02T12:57:29.220Z,24.9
2023-03-02T13:02:30.862Z,24.9
2023-03-02T13:07:32.491Z,24.9
2023-03-02T13:12:34.468Z,24.9
2023-03-02T13:17:36.052Z,24.9
2023-03-02T13:22:37.688Z,24.9
2023-03-02T13:27:39.342Z,24.9
2023-03-02T13:32:41.358Z,24.9
2023-03-02T13:37:42.986Z,24.9
2023-03-02T13:42:44.573Z,24.9
2023-03-02T13:47:46.221Z,24.9
2023-03-02T13:52:47.843Z,24.9
2023-03-02T13:57:49.718Z,24.9
2023-03-02T14:02:51.348Z,24.9
2023-03-02T14:07:52.943Z,24.9
2023-03-02T14:12:54.540Z,24.9
2023-03-02T14:17:56.183Z,24.9
2023-03-02T14:22:57.762Z,24.9
2023-03-02T14:27:59.412Z,24.9
2023-03-02T14:33:01.009Z,24.9
2023-03-02T14:38:02.886Z,24.9
2023-03-02T14:43:04.448Z,24.9
2023-03-02T14:48:06.319Z,24.9
2023-03-02T14:53:08.007Z,24.9
2023-03-02T14:58:09.677Z,24.9
2023-03-02T15:03:11.608Z,25
2023-03-02T15:08:13.597Z,25
2023-03-02T15:13:15.449Z,25
2023-03-02T15:18:17.372Z,25
2023-03-02T15:23:19.001Z,24.7
2023-03-02T15:28:20.826Z,24.7
2023-03-02T15:33:22.672Z,24.7
2023-03-02T15:38:24.277Z,24.7
2023-03-02T15:43:26.114Z,24.7
2023-03-02T15:48:27.778Z,24.7
2023-03-02T15:53:29.616Z,24.7
2023-03-02T15:58:31.225Z,24.7
2023-03-02T16:03:32.854Z,24.7
2023-03-02T16:08:34.559Z,24.7
2023-03-02T16:13:39.182Z,24.7
2023-03-02T16:18:40.844Z,24.7
2023-03-02T16:23:42.472Z,24.7
2023-03-02T16:28:44.051Z,24.7
2023-03-02T16:33:45.903Z,24.7
2023-03-02T16:38:47.544Z,24.7
2023-03-02T16:43:49.493Z,24.7
2023-03-02T16:48:51.115Z,24.7
2023-03-02T16:53:53.121Z,24.7
2023-03-02T16:58:55.634Z,24.7
2023-03-02T17:03:57.331Z,24.7
2023-03-02T17:08:58.941Z,24.7
2023-03-02T17:14:00.776Z,24.7
2023-03-02T17:19:02.770Z,24.7
2023-03-02T17:24:04.400Z,27.6
2023-03-02T17:29:06.343Z,31.1
2023-03-02T17:34:08.430Z,33.8
2023-03-02T17:39:08.653Z,36.5
2023-03-02T17:44:09.767Z,39.2
2023-03-02T17:49:10.444Z,41.6
2023-03-02T17:54:11.343Z,43.2
2023-03-02T17:59:11.820Z,44.9
2023-03-02T18:04:12.780Z,46.6
2023-03-02T18:09:13.875Z,46.9
2023-03-02T18:14:14.516Z,46.7
2023-03-02T18:19:15.372Z,46.7
2023-03-02T18:24:16.278Z,46.7
2023-03-02T18:29:17.177Z,46.6
2023-03-02T18:34:17.995Z,46.6
2023-03-02T18:39:18.829Z,46.6
2023-03-02T18:44:19.672Z,46.5
2023-03-02T18:49:20.521Z,46.4
2023-03-02T18:54:21.319Z,46.4
2023-03-02T18:59:21.900Z,46.4
2023-03-02T19:04:22.499Z,46.4
2023-03-02T19:09:23.370Z,46.3
2023-03-02T19:14:24.230Z,46.2
2023-03-02T19:19:25.124Z,46.2
2023-03-02T19:24:26.524Z,46.2
2023-03-02T19:29:27.340Z,46.1
2023-03-02T19:34:27.930Z,46.1
2023-03-02T19:39:28.575Z,46
2023-03-02T19:44:29.579Z,45.9
2023-03-02T19:49:30.451Z,45.9
2023-03-02T19:54:31.978Z,45.9
2023-03-02T19:59:32.817Z,45.8
2023-03-02T20:04:33.654Z,45.8
2023-03-02T20:09:34.289Z,45.7
2023-03-02T20:14:35.186Z,45.7
2023-03-02T20:19:36.010Z,45.6
2023-03-02T20:24:36.575Z,45.6
2023-03-02T20:29:37.689Z,45.5
2023-03-02T20:34:38.254Z,45.4
2023-03-02T20:39:38.833Z,45.4
2023-03-02T20:44:39.547Z,45.2
2023-03-02T20:49:40.395Z,45.2
2023-03-02T20:54:40.972Z,45.2
2023-03-02T20:59:41.795Z,45.1
2023-03-02T21:04:42.654Z,45
2023-03-02T21:09:43.214Z,44.9
2023-03-02T21:14:44.066Z,44.9
2023-03-02T21:19:44.610Z,44.8
2023-03-02T21:24:45.143Z,44.7
2023-03-02T21:29:45.675Z,44.7
2023-03-02T21:34:46.184Z,44.6
2023-03-02T21:39:46.703Z,44.6
2023-03-02T21:44:47.220Z,44.5
2023-03-02T21:49:47.965Z,44.4
2023-03-02T21:54:48.716Z,44.4
2023-03-02T21:59:49.197Z,44.3
2023-03-02T22:04:50.009Z,44.2
2023-03-02T22:09:50.788Z,44.2
2023-03-02T22:14:51.483Z,44.1
2023-03-02T22:19:51.981Z,44.1
2023-03-02T22:24:52.480Z,44
2023-03-02T22:29:53.176Z,43.9
2023-03-02T22:34:53.894Z,43.8
2023-03-02T22:39:54.772Z,43.7
2023-03-02T22:44:55.239Z,43.7
2023-03-02T22:49:55.730Z,43.7
2023-03-02T22:54:56.212Z,43.6
2023-03-02T22:59:56.755Z,43.6
2023-03-02T23:04:57.733Z,43.5
2023-03-02T23:09:58.216Z,43.4
2023-03-02T23:14:59.406Z,43.4
2023-03-02T23:19:59.861Z,43.3
2023-03-02T23:25:00.544Z,43.2
2023-03-02T23:30:01.210Z,43.2
2023-03-02T23:35:01.896Z,43.1
2023-03-02T23:40:02.342Z,43
2023-03-02T23:45:02.811Z,43
2023-03-02T23:50:03.281Z,42.9
2023-03-02T23:55:03.769Z,42.9
